createdAt,value
2018-07-11T00:00:21.800Z,94944.48
2018-07-11T00:02:48.458Z,94948.43
2018-07-11T00:05:15.341Z,94945.52
2018-07-11T00:07:41.917Z,94946.19
2018-07-11T00:10:09.361Z,94948.77
2018-07-11T00:12:36.430Z,94943.36
2018-07-11T00:15:04.503Z,94944.64
2018-07-11T00:17:31.533Z,94944.59
2018-07-11T00:19:58.791Z,94938.09
2018-07-11T00:22:25.760Z,94943.19
2018-07-11T00:24:52.242Z,94943.33
2018-07-11T00:29:50.960Z,94930.09
2018-07-11T00:32:17.760Z,94928.22
2018-07-11T00:34:44.148Z,94927.86
2018-07-11T00:37:10.974Z,94925.86
2018-07-11T00:39:41.034Z,94923.28
2018-07-11T00:42:07.706Z,94929.94
2018-07-11T00:44:34.065Z,94928.33
2018-07-11T00:47:00.949Z,94932.71
2018-07-11T00:49:27.377Z,94924.65
2018-07-11T00:51:53.771Z,94931.25
2018-07-11T00:54:20.271Z,94924.16
2018-07-11T00:56:46.674Z,94924.95
2018-07-11T00:59:12.996Z,94924.76
2018-07-11T01:01:39.490Z,94930.38
2018-07-11T01:04:05.836Z,94924.75
2018-07-11T01:06:32.292Z,94896.86
2018-07-11T01:08:58.769Z,94921.91
2018-07-11T01:11:25.646Z,94926.97
2018-07-11T01:13:52.047Z,94915.49
2018-07-11T01:16:18.659Z,94925.56
2018-07-11T01:18:45.172Z,94918.14
2018-07-11T01:21:11.681Z,94917.68
2018-07-11T01:23:38.356Z,94926.64
2018-07-11T01:26:04.708Z,94919.28
2018-07-11T01:28:31.096Z,94920.33
2018-07-11T01:30:57.547Z,94912.03
2018-07-11T01:33:23.998Z,94915.02
2018-07-11T01:35:50.470Z,94921.50
2018-07-11T01:38:17.089Z,94919.92
2018-07-11T01:40:43.424Z,94915.26
2018-07-11T01:43:09.827Z,94919.23
2018-07-11T01:45:36.429Z,94917.95
2018-07-11T01:48:02.827Z,94929.23
2018-07-11T01:50:29.207Z,94921.63
2018-07-11T01:52:56.345Z,94914.62
2018-07-11T01:55:23.614Z,94906.28
2018-07-11T01:57:50.405Z,94915.37
2018-07-11T02:00:16.897Z,94916.47
2018-07-11T02:02:44.816Z,94918.76
2018-07-11T02:05:11.151Z,94917.28
2018-07-11T02:07:37.896Z,94921.51
2018-07-11T02:10:04.587Z,94922.80
2018-07-11T02:12:30.995Z,94928.69
2018-07-11T02:14:57.777Z,94919.00
2018-07-11T02:17:24.697Z,94925.47
2018-07-11T02:19:51.029Z,94921.62
2018-07-11T02:22:17.591Z,94930.81
2018-07-11T02:24:44.400Z,94925.42
2018-07-11T02:27:10.947Z,94923.48
2018-07-11T02:29:37.464Z,94930.30
2018-07-11T02:32:04.639Z,94930.34
2018-07-11T02:34:30.967Z,94930.57
2018-07-11T02:36:57.731Z,94930.57
2018-07-11T02:39:24.660Z,94921.28
2018-07-11T02:41:51.127Z,94929.75
2018-07-11T02:44:17.509Z,94930.52
2018-07-11T02:46:43.921Z,94936.31
2018-07-11T02:49:10.531Z,94940.50
2018-07-11T02:51:36.860Z,94930.63
2018-07-11T02:54:03.754Z,94928.00
2018-07-11T02:56:31.168Z,94926.00
2018-07-11T02:58:57.770Z,94934.38
2018-07-11T03:01:24.408Z,94936.83
2018-07-11T03:03:50.922Z,94937.83
2018-07-11T03:06:17.443Z,94935.70
2018-07-11T03:08:43.868Z,94937.93
2018-07-11T03:11:10.820Z,94942.80
2018-07-11T03:13:37.547Z,94942.25
2018-07-11T03:16:04.412Z,94940.45
2018-07-11T03:18:30.916Z,94943.55
2018-07-11T03:20:58.412Z,94936.70
2018-07-11T03:23:24.790Z,94942.98
2018-07-11T03:25:51.112Z,94943.72
2018-07-11T03:28:17.737Z,94945.37
2018-07-11T03:30:44.278Z,94949.64
2018-07-11T03:33:10.647Z,94944.08
2018-07-11T03:35:37.007Z,94947.77
2018-07-11T03:38:03.326Z,94945.95
2018-07-11T03:40:29.732Z,94953.03
2018-07-11T03:42:56.048Z,94948.95
2018-07-11T03:45:22.424Z,94943.06
2018-07-11T03:47:50.016Z,94954.30
2018-07-11T03:50:16.341Z,94956.34
2018-07-11T03:52:42.655Z,94955.13
2018-07-11T03:55:09.328Z,94964.01
2018-07-11T03:57:35.639Z,94961.42
2018-07-11T04:00:02.361Z,94960.48
2018-07-11T04:02:38.130Z,94968.15
2018-07-11T04:05:06.752Z,94967.38
2018-07-11T04:07:33.161Z,94976.80
2018-07-11T04:10:02.754Z,94972.28
2018-07-11T04:12:29.526Z,94968.92
2018-07-11T04:14:56.924Z,94971.42
2018-07-11T04:17:25.092Z,94986.08
2018-07-11T04:22:25.538Z,94984.60
2018-07-11T04:24:52.045Z,94988.88
2018-07-11T04:27:18.763Z,94988.88
2018-07-11T04:29:45.618Z,94991.84
2018-07-11T04:32:12.310Z,94989.27
2018-07-11T04:34:39.310Z,94998.23
2018-07-11T04:37:06.371Z,94992.67
2018-07-11T04:39:33.102Z,94988.33
2018-07-11T04:41:59.684Z,94994.81
2018-07-11T04:44:27.299Z,94992.02
2018-07-11T04:46:53.895Z,94999.94
2018-07-11T04:49:20.596Z,95001.06
2018-07-11T04:51:47.339Z,94998.12
2018-07-11T04:54:13.789Z,94994.42
2018-07-11T04:56:40.523Z,94992.31
2018-07-11T04:59:06.882Z,94995.61
2018-07-11T05:01:33.436Z,95001.94
2018-07-11T05:04:00.070Z,94995.99
2018-07-11T05:06:27.425Z,94997.25
2018-07-11T05:08:54.193Z,94997.83
2018-07-11T05:11:22.044Z,94997.66
2018-07-11T05:13:53.224Z,94991.95
2018-07-11T05:16:19.660Z,94996.91
2018-07-11T05:18:47.143Z,94998.78
2018-07-11T05:21:13.526Z,95004.37
2018-07-11T05:23:40.111Z,95002.36
2018-07-11T05:26:06.501Z,95004.94
2018-07-11T05:28:33.659Z,95006.26
2018-07-11T05:31:01.865Z,94992.78
2018-07-11T05:33:28.235Z,94998.48
2018-07-11T05:35:55.063Z,94990.84
2018-07-11T05:38:21.634Z,94995.61
2018-07-11T05:40:48.174Z,94991.84
2018-07-11T05:43:14.632Z,94997.99
2018-07-11T05:45:41.178Z,94997.82
2018-07-11T05:48:07.750Z,94999.23
2018-07-11T05:50:34.170Z,94999.22
2018-07-11T05:53:00.640Z,94990.91
2018-07-11T05:55:27.350Z,94992.05
2018-07-11T05:57:53.701Z,94992.26
2018-07-11T06:00:20.049Z,94994.23
2018-07-11T06:02:47.292Z,94991.44
2018-07-11T06:05:13.758Z,94991.54
2018-07-11T06:07:40.129Z,95002.22
2018-07-11T06:10:06.515Z,94993.33
2018-07-11T06:12:32.913Z,94993.48
2018-07-11T06:15:00.074Z,94990.50
2018-07-11T06:17:26.515Z,94992.25
2018-07-11T06:19:52.966Z,94984.78
2018-07-11T06:22:19.360Z,94985.27
2018-07-11T06:24:46.192Z,94971.95
2018-07-11T06:27:12.754Z,94976.05
2018-07-11T06:29:39.184Z,94976.45
2018-07-11T06:32:05.736Z,94976.86
2018-07-11T06:34:32.159Z,94971.34
2018-07-11T06:36:59.594Z,94977.58
2018-07-11T06:39:27.348Z,94970.50
2018-07-11T06:41:53.918Z,94974.73
2018-07-11T06:44:20.666Z,94977.66
2018-07-11T06:46:48.456Z,94974.20
2018-07-11T06:49:15.118Z,94977.58
2018-07-11T06:51:42.354Z,94977.08
2018-07-11T06:54:08.854Z,94981.09
2018-07-11T06:56:35.296Z,94973.61
2018-07-11T06:59:01.804Z,94977.54
2018-07-11T07:01:28.478Z,94970.91
2018-07-11T07:03:55.169Z,94970.91
2018-07-11T07:06:26.160Z,94970.81
2018-07-11T07:08:55.197Z,94972.59
2018-07-11T07:11:22.816Z,94966.75
2018-07-11T07:13:49.732Z,94970.89
2018-07-11T07:18:50.129Z,94966.72
2018-07-11T07:21:25.122Z,94965.10
2018-07-11T07:23:55.218Z,94958.35
2018-07-11T07:28:55.494Z,94963.09
2018-07-11T07:31:24.300Z,94963.09
2018-07-11T07:33:51.660Z,94959.70
2018-07-11T07:36:18.483Z,94961.84
2018-07-11T07:38:45.302Z,94954.34
2018-07-11T07:41:12.150Z,94966.78
2018-07-11T07:43:38.859Z,94956.17
2018-07-11T07:46:05.789Z,94943.58
2018-07-11T07:48:36.465Z,94946.84
2018-07-11T07:51:03.939Z,94950.73
2018-07-11T07:53:31.082Z,94954.89
2018-07-11T07:55:59.133Z,94954.48
2018-07-11T07:58:26.132Z,94950.31
2018-07-11T08:00:53.227Z,94947.07
2018-07-11T08:03:20.071Z,94954.73
2018-07-11T08:05:48.073Z,94942.82
2018-07-11T08:08:15.322Z,94952.28
2018-07-11T08:10:46.391Z,94949.64
2018-07-11T08:13:14.401Z,94948.49
2018-07-11T08:18:12.910Z,94949.84
2018-07-11T08:20:40.019Z,94947.64
2018-07-11T08:25:41.199Z,94939.23
2018-07-11T08:28:10.814Z,94932.09
2018-07-11T08:33:20.914Z,94940.05
2018-07-11T08:35:48.540Z,94938.61
2018-07-11T08:38:15.333Z,94934.73
2018-07-11T08:40:42.492Z,94927.05
2018-07-11T08:43:09.835Z,94931.12
2018-07-11T08:45:39.775Z,94931.20
2018-07-11T09:06:37.938Z,94920.56
2018-07-11T09:09:05.040Z,94914.69
2018-07-11T09:11:31.828Z,94921.03
2018-07-11T09:13:59.081Z,94922.64
2018-07-11T09:16:25.821Z,94909.41
2018-07-11T09:18:54.297Z,94919.00
2018-07-11T09:21:22.343Z,94911.38
2018-07-11T09:23:49.374Z,94905.76
2018-07-11T09:26:17.638Z,94905.85
2018-07-11T09:28:44.448Z,94906.20
2018-07-11T09:31:11.700Z,94913.43
2018-07-11T09:33:39.375Z,94907.71
2018-07-11T09:36:09.388Z,94907.63
2018-07-11T09:38:36.035Z,94909.19
2018-07-11T09:41:03.116Z,94898.84
2018-07-11T09:43:30.022Z,94895.98
2018-07-11T09:45:58.674Z,94905.92
2018-07-11T09:48:29.096Z,94906.41
2018-07-11T09:51:04.997Z,94909.92
2018-07-11T09:53:32.811Z,94905.17
2018-07-11T09:56:03.240Z,94907.62
2018-07-11T09:58:30.347Z,94903.05
2018-07-11T10:16:56.194Z,94906.05
2018-07-11T10:19:23.336Z,94904.82
2018-07-11T10:21:50.384Z,94903.39
2018-07-11T10:24:16.919Z,94901.25
2018-07-11T10:26:43.947Z,94898.41
2018-07-11T10:29:13.843Z,94900.23
2018-07-11T10:31:41.117Z,94891.97
2018-07-11T10:34:08.228Z,94893.86
2018-07-11T10:36:35.513Z,94894.40
2018-07-11T10:39:02.788Z,94897.05
2018-07-11T10:41:32.492Z,94896.16
2018-07-11T10:43:59.590Z,94886.44
2018-07-11T10:46:26.774Z,94878.53
2018-07-11T10:48:54.299Z,94882.77
2018-07-11T10:51:26.224Z,94887.69
2018-07-11T10:53:53.559Z,94888.67
2018-07-11T10:56:20.640Z,94882.02
2018-07-11T10:58:49.694Z,94883.73
2018-07-11T11:01:16.707Z,94889.63
2018-07-11T11:03:43.758Z,94884.33
2018-07-11T11:06:14.711Z,94889.44
2018-07-11T11:08:42.602Z,94881.41
2018-07-11T11:11:09.837Z,94885.51
2018-07-11T11:13:38.179Z,94878.92
2018-07-11T11:16:05.317Z,94871.94
2018-07-11T11:18:32.551Z,94879.70
2018-07-11T11:20:59.663Z,94876.08
2018-07-11T11:23:27.095Z,94865.20
2018-07-11T11:25:54.195Z,94868.88
2018-07-11T11:28:21.260Z,94867.11
2018-07-11T11:30:58.344Z,94867.86
2018-07-11T11:33:25.245Z,94854.86
2018-07-11T11:35:52.063Z,94854.22
2018-07-11T11:38:21.017Z,94857.45
2018-07-11T11:40:48.050Z,94855.91
2018-07-11T11:43:15.869Z,94861.74
2018-07-11T11:45:43.759Z,94850.88
2018-07-11T11:48:10.957Z,94856.73
2018-07-11T11:50:44.108Z,94862.24
2018-07-11T11:53:11.191Z,94846.78
2018-07-11T11:55:38.686Z,94847.23
2018-07-11T11:58:53.438Z,94845.18
2018-07-11T12:01:20.508Z,94841.19
2018-07-11T12:03:48.668Z,94847.38
2018-07-11T12:06:15.756Z,94844.64
2018-07-11T12:08:42.548Z,94840.50
2018-07-11T12:11:09.494Z,94846.08
2018-07-11T12:13:37.974Z,94845.55
2018-07-11T12:16:04.817Z,94835.07
2018-07-11T12:18:31.316Z,94831.41
2018-07-11T12:20:58.244Z,94830.26
2018-07-11T12:23:24.978Z,94829.08
2018-07-11T12:25:51.701Z,94820.19
2018-07-11T12:28:18.268Z,94820.92
2018-07-11T12:30:48.524Z,94807.11
2018-07-11T12:33:15.442Z,94816.42
2018-07-11T12:35:42.219Z,94817.89
2018-07-11T12:38:08.967Z,94809.41
2018-07-11T12:40:36.806Z,94809.80
2018-07-11T12:43:03.555Z,94798.53
2018-07-11T12:45:30.134Z,94800.84
2018-07-11T12:47:56.937Z,94801.40
2018-07-11T12:50:24.241Z,94798.73
2018-07-11T12:52:51.522Z,94806.02
2018-07-11T12:55:18.387Z,94798.92
2018-07-11T12:57:49.006Z,94803.05
2018-07-11T13:00:15.953Z,94806.72
2018-07-11T13:02:43.021Z,94799.45
2018-07-11T13:05:09.957Z,94794.53
2018-07-11T13:07:37.002Z,94798.09
2018-07-11T13:10:04.262Z,94805.83
2018-07-11T13:12:31.223Z,94809.36
2018-07-11T13:14:59.373Z,94804.63
2018-07-11T13:17:26.514Z,94806.17
2018-07-11T13:41:04.187Z,94797.78
2018-07-11T13:43:31.278Z,94793.53
2018-07-11T13:45:58.337Z,94797.75
2018-07-11T13:48:25.268Z,94797.59
2018-07-11T13:50:52.266Z,94797.53
2018-07-11T13:53:19.389Z,94795.45
2018-07-11T13:55:46.726Z,94798.55
2018-07-11T13:58:14.129Z,94798.35
2018-07-11T14:00:48.530Z,94797.28
2018-07-11T14:03:16.832Z,94790.91
2018-07-11T14:13:29.834Z,94799.45
2018-07-11T14:15:56.791Z,94803.64
2018-07-11T14:18:23.452Z,94798.34
2018-07-11T14:20:54.861Z,94796.86
2018-07-11T14:23:21.788Z,94790.45
2018-07-11T14:25:48.766Z,94796.11
2018-07-11T14:28:16.461Z,94785.52
2018-07-11T14:30:42.918Z,94794.98
2018-07-11T14:33:09.336Z,94786.56
2018-07-11T14:35:36.220Z,94786.77
2018-07-11T14:38:03.228Z,94782.75
2018-07-11T14:40:36.925Z,94791.83
2018-07-11T14:43:03.793Z,94793.08
2018-07-11T14:45:30.591Z,94777.05
2018-07-11T14:47:57.578Z,94785.77
2018-07-11T15:01:06.994Z,94782.31
2018-07-11T15:03:33.693Z,94775.70
2018-07-11T15:06:00.060Z,94780.63
2018-07-11T15:08:26.592Z,94775.48
2018-07-11T15:10:53.049Z,94782.77
2018-07-11T15:13:19.434Z,94771.22
2018-07-11T15:15:45.959Z,94781.95
2018-07-11T15:18:12.291Z,94784.95
2018-07-11T15:20:38.817Z,94785.11
2018-07-11T15:23:06.205Z,94784.00
2018-07-11T15:25:32.558Z,94783.74
2018-07-11T15:28:00.291Z,94792.92
2018-07-11T15:30:26.678Z,94794.47
2018-07-11T15:32:53.354Z,94795.45
2018-07-11T15:35:20.429Z,94790.88
2018-07-11T15:37:47.062Z,94794.16
2018-07-11T15:40:21.518Z,94801.25
2018-07-11T15:42:48.039Z,94800.78
2018-07-11T15:45:14.532Z,94794.41
2018-07-11T15:47:41.656Z,94791.59
2018-07-11T15:50:08.264Z,94791.22
2018-07-11T15:52:35.413Z,94792.67
2018-07-11T15:55:02.024Z,94795.42
2018-07-11T15:57:28.922Z,94791.47
2018-07-11T15:59:55.825Z,94804.34
2018-07-11T16:02:22.220Z,94805.23
2018-07-11T16:19:58.023Z,94819.22
2018-07-11T16:22:24.565Z,94808.70
2018-07-11T16:24:51.188Z,94825.78
2018-07-11T16:27:17.940Z,94828.23
2018-07-11T16:29:44.307Z,94826.59
2018-07-11T16:32:10.641Z,94826.66
2018-07-11T16:34:38.821Z,94821.92
2018-07-11T16:37:05.644Z,94823.94
2018-07-11T16:39:32.086Z,94827.41
2018-07-11T16:41:58.738Z,94826.55
2018-07-11T16:44:25.130Z,94820.83
2018-07-11T16:46:52.874Z,94827.00
2018-07-11T16:49:19.560Z,94831.22
2018-07-11T16:51:46.251Z,94829.39
2018-07-11T16:54:12.789Z,94826.20
2018-07-11T16:56:39.202Z,94836.34
2018-07-11T16:59:06.075Z,94832.59
2018-07-11T17:19:13.405Z,94856.52
2018-07-11T17:21:40.552Z,94851.91
2018-07-11T17:24:06.980Z,94855.55
2018-07-11T17:26:34.773Z,94856.44
2018-07-11T17:29:01.564Z,94859.22
2018-07-11T17:31:27.915Z,94860.16
2018-07-11T17:33:54.270Z,94860.45
2018-07-11T17:36:21.019Z,94866.86
2018-07-11T17:38:47.932Z,94868.15
2018-07-11T17:41:14.290Z,94870.11
2018-07-11T17:43:40.798Z,94870.87
2018-07-11T17:46:07.049Z,94878.53
2018-07-11T17:48:33.938Z,94878.22
2018-07-11T17:51:07.968Z,94881.63
2018-07-11T17:53:34.419Z,94887.94
2018-07-11T17:56:00.808Z,94877.53
2018-07-11T17:58:27.133Z,94893.41
2018-07-11T18:19:10.897Z,94902.03
2018-07-11T18:21:37.306Z,94907.24
2018-07-11T18:24:04.692Z,94904.16
2018-07-11T18:26:31.069Z,94902.84
2018-07-11T18:28:57.395Z,94910.48
2018-07-11T18:31:24.455Z,94903.20
2018-07-11T18:33:51.090Z,94906.53
2018-07-11T18:36:17.656Z,94918.44
2018-07-11T18:38:44.165Z,94922.86
2018-07-11T18:41:10.518Z,94920.02
2018-07-11T18:43:36.907Z,94923.02
2018-07-11T18:46:03.789Z,94927.03
2018-07-11T18:51:09.142Z,94939.63
2018-07-11T18:53:35.484Z,94949.03
2018-07-11T18:56:01.913Z,94942.34
2018-07-11T18:58:28.236Z,94941.19
2018-07-11T19:19:11.495Z,94952.64
2018-07-11T19:21:38.084Z,94961.55
2018-07-11T19:24:04.509Z,94967.07
2018-07-11T19:26:30.918Z,94966.66
2018-07-11T19:28:57.705Z,94970.39
2018-07-11T19:31:24.092Z,94957.66
2018-07-11T19:33:50.459Z,94961.55
2018-07-11T19:36:16.873Z,94975.03
2018-07-11T19:38:43.260Z,94977.36
2018-07-11T19:41:09.679Z,94970.39
2018-07-11T19:43:36.019Z,94967.00
2018-07-11T19:46:02.530Z,94962.70
2018-07-11T19:48:28.925Z,94963.66
2018-07-11T19:50:55.251Z,94957.06
2018-07-11T19:53:21.638Z,94963.05
2018-07-11T19:55:47.955Z,94955.36
2018-07-11T19:58:14.549Z,94956.17
2018-07-11T20:00:41.031Z,94961.88
2018-07-11T20:03:07.411Z,94957.53
2018-07-11T20:05:33.718Z,94959.70
2018-07-11T20:18:05.944Z,94959.31
2018-07-11T20:20:40.519Z,94960.14
2018-07-11T20:23:07.120Z,94959.98
2018-07-11T20:25:33.637Z,94959.92
2018-07-11T20:28:00.378Z,94959.03
2018-07-11T20:41:08.606Z,94973.22
2018-07-11T20:43:35.012Z,94968.38
2018-07-11T20:46:01.524Z,94979.80
2018-07-11T20:48:28.733Z,94981.04
2018-07-11T20:50:55.068Z,94978.72
2018-07-11T20:53:21.782Z,94980.08
2018-07-11T20:55:48.285Z,94983.41
2018-07-11T20:58:17.020Z,94985.94
2018-07-11T21:00:43.391Z,94992.25
2018-07-11T21:03:11.721Z,94989.68
2018-07-11T21:05:38.352Z,94993.83
2018-07-11T21:08:05.075Z,94998.95
2018-07-11T21:10:39.131Z,94996.75
2018-07-11T21:13:05.444Z,94995.38
2018-07-11T21:20:34.858Z,94992.31
2018-07-11T21:23:01.265Z,95003.06
2018-07-11T21:25:31.378Z,95002.30
2018-07-11T21:27:57.946Z,95004.28
2018-07-11T21:30:32.454Z,95005.37
2018-07-11T21:32:58.769Z,95007.28
2018-07-11T21:35:25.459Z,95013.80
2018-07-11T21:37:52.069Z,95007.70
2018-07-11T21:40:18.402Z,95019.62
2018-07-11T21:42:44.771Z,95012.25
2018-07-11T21:45:11.115Z,95015.92
2018-07-11T21:47:37.448Z,95015.16
2018-07-11T21:50:04.061Z,95026.06
2018-07-11T21:52:30.391Z,95019.77
2018-07-11T21:54:56.743Z,95019.87
2018-07-11T21:57:23.702Z,95016.55
2018-07-11T21:59:50.034Z,95019.02
2018-07-11T22:02:16.602Z,95015.70
2018-07-11T22:04:43.389Z,95010.44
2018-07-11T22:07:09.783Z,95017.81
2018-07-11T22:09:36.537Z,95017.98
2018-07-11T22:12:03.249Z,95024.71
2018-07-11T22:14:29.585Z,95013.81
2018-07-11T22:16:56.748Z,95013.97
2018-07-11T22:19:24.767Z,95024.09
2018-07-11T22:21:51.353Z,95020.95
2018-07-11T22:24:17.704Z,95023.01
2018-07-11T22:26:44.063Z,95025.18
2018-07-11T22:29:10.408Z,95018.92
2018-07-11T22:31:36.821Z,95017.63
2018-07-11T22:34:03.322Z,95014.08
2018-07-11T22:36:29.671Z,95018.69
2018-07-11T22:38:56.028Z,95018.80
2018-07-11T22:41:22.375Z,95022.97
2018-07-11T22:43:48.741Z,95021.17
2018-07-11T22:46:15.140Z,95024.79
2018-07-11T22:48:41.661Z,95029.14
2018-07-11T22:51:11.882Z,95024.70
2018-07-11T22:53:38.210Z,95030.86
2018-07-11T22:56:06.262Z,95027.28
2018-07-11T22:58:33.060Z,95029.09
2018-07-11T23:00:59.625Z,95032.14
2018-07-11T23:03:26.584Z,95036.84
2018-07-11T23:05:52.956Z,95033.02
2018-07-11T23:08:19.328Z,95027.50
2018-07-11T23:10:46.168Z,95025.59
2018-07-11T23:13:12.519Z,95028.80
2018-07-11T23:15:38.892Z,95025.91
2018-07-11T23:18:05.229Z,95028.02
2018-07-11T23:20:31.551Z,95027.29
2018-07-11T23:22:58.071Z,95030.25
2018-07-11T23:25:25.446Z,95028.58
2018-07-11T23:27:52.300Z,95029.46
2018-07-11T23:30:27.775Z,95029.33
2018-07-11T23:32:54.093Z,95035.73
2018-07-11T23:35:20.642Z,95042.36
2018-07-11T23:37:47.477Z,95034.34
2018-07-11T23:40:13.795Z,95033.94
2018-07-11T23:42:40.219Z,95042.15
2018-07-11T23:45:06.767Z,95044.38
2018-07-11T23:47:33.138Z,95047.84
2018-07-11T23:49:59.903Z,95049.53
2018-07-11T23:52:26.204Z,95052.38
2018-07-11T23:54:52.836Z,95047.36
2018-07-11T23:57:19.204Z,95051.44
2018-07-11T23:59:45.880Z,95048.91
